Time;durP1;ratioP1;P1;durP2;ratioP2;P2;SDS_P1;SDS_P2;PMS_P1;PMS_P2;Temp;Humidity;BMP_temperature;BMP_pressure;BME280_temperature;BME280_humidity;BME280_pressure;Samples;Min_cycle;Max_cycle;Signal;HPM_P1;HPM_P2
2022/06/24 00:00:44;;;;;;;3.70;2.00;;;;;;;19.80;62.11;100190.25;4423118;32;20101;-85
2022/06/24 00:03:19;;;;;;;7.85;2.20;;;;;;;19.80;62.20;100187.59;4423184;32;20502;-85
2022/06/24 00:05:47;;;;;;;3.17;2.30;;;;;;;19.78;62.69;100194.81;4423311;32;20111;-85
2022/06/24 00:08:15;;;;;;;7.50;1.73;;;;;;;19.80;62.95;100194.75;4423201;32;20098;-85
2022/06/24 00:10:43;;;;;;;5.28;2.50;;;;;;;19.70;62.53;100197.03;4409015;32;20101;-85
2022/06/24 00:13:10;;;;;;;4.47;2.50;;;;;;;19.64;63.56;100191.16;4395969;32;20164;-85
2022/06/24 00:15:38;;;;;;;3.92;2.00;;;;;;;19.55;63.70;100193.31;4423100;32;20146;-85
2022/06/24 00:18:11;;;;;;;2.78;2.10;;;;;;;19.45;66.03;100199.22;4423306;32;20123;-85
2022/06/24 00:20:50;;;;;;;4.22;2.33;;;;;;;19.40;67.22;100193.25;4408988;32;20374;-85
2022/06/24 00:23:22;;;;;;;3.10;2.00;;;;;;;19.28;68.02;100194.75;4408790;32;20117;-85
2022/06/24 00:25:50;;;;;;;3.87;2.05;;;;;;;19.25;67.59;100194.91;4422928;32;20108;-85
2022/06/24 00:28:24;;;;;;;5.00;2.08;;;;;;;19.26;66.40;100199.31;4422978;32;20438;-85
2022/06/24 00:30:54;;;;;;;3.67;1.90;;;;;;;19.20;67.30;100197.81;4422900;32;20086;-85
2022/06/24 00:33:23;;;;;;;5.03;2.05;;;;;;;19.23;66.89;100196.81;4422948;32;20101;-85
2022/06/24 00:35:56;;;;;;;2.47;2.00;;;;;;;19.16;66.67;100200.72;4408660;32;20533;-85
2022/06/24 00:38:31;;;;;;;5.68;1.87;;;;;;;19.16;67.31;100203.37;4423054;32;20581;-85
2022/06/24 00:41:08;;;;;;;9.35;2.00;;;;;;;19.15;65.85;100199.81;4408792;32;20536;-85
2022/06/24 00:43:41;;;;;;;5.30;1.70;;;;;;;19.22;64.49;100195.94;4422885;32;20579;-85
2022/06/24 00:46:19;;;;;;;7.20;2.15;;;;;;;19.23;63.66;100203.00;4422790;32;20127;-85
2022/06/24 00:48:51;;;;;;;6.15;1.77;;;;;;;19.23;63.66;100189.66;4422728;32;20106;-85
2022/06/24 00:51:20;;;;;;;5.18;1.95;;;;;;;19.22;65.88;100195.03;4422538;32;20128;-84
2022/06/24 00:53:53;;;;;;;9.00;1.92;;;;;;;19.16;65.22;100192.72;4408201;32;20117;-85
2022/06/24 00:56:25;;;;;;;4.50;1.83;;;;;;;19.12;64.94;100194.66;4422616;32;20147;-85
2022/06/24 00:58:53;;;;;;;4.60;2.10;;;;;;;19.02;65.01;100199.59;4422517;32;20097;-85
2022/06/24 01:01:32;;;;;;;3.42;2.12;;;;;;;18.98;66.16;100192.69;4422478;32;20173;-85
2022/06/24 01:04:02;;;;;;;6.25;2.05;;;;;;;18.86;67.60;100194.13;4409409;32;20118;-85
2022/06/24 01:06:30;;;;;;;3.20;1.98;;;;;;;18.80;67.68;100198.94;4424404;32;20496;-85
2022/06/24 01:08:57;;;;;;;3.17;1.90;;;;;;;18.76;68.42;100183.97;4410204;32;20097;-85
2022/06/24 01:11:27;;;;;;;6.62;2.20;;;;;;;18.73;69.23;100181.47;4410159;32;20148;-85
2022/06/24 01:13:54;;;;;;;3.67;2.10;;;;;;;18.66;69.37;100196.00;4424310;32;20118;-85
2022/06/24 01:16:23;;;;;;;4.00;1.92;;;;;;;18.69;68.63;100183.37;4424372;32;20073;-85
2022/06/24 01:18:53;;;;;;;5.15;1.85;;;;;;;18.64;69.38;100183.63;4409910;32;20158;-85
2022/06/24 01:21:33;;;;;;;2.22;2.03;;;;;;;18.62;69.99;100181.94;4424305;32;20101;-85
2022/06/24 01:24:21;;;;;;;6.22;1.92;;;;;;;18.50;69.53;100177.22;4424283;32;20530;-85
2022/06/24 01:26:49;;;;;;;;;;;;;;;18.45;70.30;100184.59;4424595;32;20519;-85
2022/06/24 01:29:19;;;;;;;2.55;2.08;;;;;;;18.40;70.49;100182.13;4424599;32;20026;-85
2022/06/24 01:31:48;;;;;;;4.40;2.17;;;;;;;18.33;71.80;100178.88;4424354;32;20123;-85
2022/06/24 01:34:18;;;;;;;7.53;1.90;;;;;;;18.27;71.26;100181.84;4424256;32;20506;-85
2022/06/24 01:36:46;;;;;;;4.35;2.10;;;;;;;18.24;72.38;100183.78;4424251;32;20132;-85
2022/06/24 01:39:14;;;;;;;5.20;1.95;;;;;;;18.20;71.46;100180.41;4424343;32;20148;-85
2022/06/24 01:41:41;;;;;;;7.28;2.17;;;;;;;18.19;72.11;100172.47;4424097;32;20123;-85
2022/06/24 01:44:09;;;;;;;3.10;2.33;;;;;;;18.13;73.71;100174.50;4424228;32;20500;-85
2022/06/24 01:46:36;;;;;;;3.10;2.20;;;;;;;18.11;70.94;100173.69;4424198;32;20154;-85
2022/06/24 01:49:04;;;;;;;8.48;2.10;;;;;;;18.11;71.77;100173.69;4424099;32;20411;-85
2022/06/24 01:51:33;;;;;;;4.57;2.22;;;;;;;18.07;72.98;100173.91;4424115;32;20176;-84
2022/06/24 01:54:01;;;;;;;7.85;2.42;;;;;;;18.07;72.65;100171.25;4424324;32;20160;-85
2022/06/24 01:56:28;;;;;;;5.70;2.00;;;;;;;18.00;72.42;100175.13;4410172;32;20086;-85
2022/06/24 01:58:56;;;;;;;9.30;2.10;;;;;;;18.02;72.14;100168.78;4424136;32;20088;-85
2022/06/24 02:01:23;;;;;;;4.28;2.40;;;;;;;17.96;73.41;100169.06;4424122;32;20109;-85
2022/06/24 02:03:51;;;;;;;4.12;2.17;;;;;;;17.92;73.84;100173.69;4409644;32;20228;-85
2022/06/24 02:06:18;;;;;;;5.78;2.20;;;;;;;17.92;72.50;100173.69;4424115;32;20102;-85
2022/06/24 02:08:46;;;;;;;7.00;2.50;;;;;;;17.85;72.70;100168.69;4424255;32;20085;-85
2022/06/24 02:14:02;;;;;;;3.22;2.60;;;;;;;17.94;71.03;100173.59;4423960;32;20101;-85
2022/06/24 02:16:31;;;;;;;4.90;2.03;;;;;;;17.91;72.17;100179.94;4423533;32;20098;-85
2022/06/24 02:18:59;;;;;;;4.97;2.37;;;;;;;17.86;72.12;100173.94;4409409;32;20105;-85
2022/06/24 02:21:27;;;;;;;5.70;2.37;;;;;;;17.93;71.28;100174.53;4423970;32;20097;-85
2022/06/24 02:23:54;;;;;;;8.68;2.22;;;;;;;17.89;71.87;100167.62;4396869;32;20114;-85
2022/06/24 02:26:22;;;;;;;3.80;1.98;;;;;;;17.86;72.22;100173.09;4409841;32;20150;-85
2022/06/24 02:28:49;;;;;;;5.43;2.58;;;;;;;17.89;72.21;100172.94;4424049;32;20155;-85
2022/06/24 02:31:17;;;;;;;3.03;1.90;;;;;;;17.86;72.36;100176.59;4423735;32;20101;-85
2022/06/24 02:33:46;;;;;;;4.65;2.35;;;;;;;17.87;72.86;100181.00;4423831;32;20156;-85
2022/06/24 02:36:14;;;;;;;4.12;2.15;;;;;;;17.85;73.47;100179.34;4423856;32;20077;-85
2022/06/24 02:38:42;;;;;;;9.40;2.50;;;;;;;17.81;73.30;100180.41;4423844;32;20136;-85
2022/06/24 02:41:12;;;;;;;3.55;2.12;;;;;;;17.76;75.16;100185.09;4423795;32;20771;-85
2022/06/24 02:43:39;;;;;;;4.95;2.90;;;;;;;17.71;75.70;100179.09;4423839;32;20109;-85
2022/06/24 02:46:10;;;;;;;2.62;2.42;;;;;;;17.67;74.77;100181.88;4423766;32;20081;-85
2022/06/24 02:48:40;;;;;;;3.90;2.22;;;;;;;17.66;75.39;100184.59;4423869;32;20073;-85
2022/06/24 02:51:10;;;;;;;6.70;2.20;;;;;;;17.63;77.29;100179.37;4423833;32;20090;-85
2022/06/24 02:53:37;;;;;;;3.22;2.40;;;;;;;17.64;76.72;100179.34;4423826;32;20101;-84
2022/06/24 02:56:11;;;;;;;3.37;2.20;;;;;;;17.62;76.66;100177.66;4423770;32;20082;-85
2022/06/24 02:58:39;;;;;;;3.92;2.20;;;;;;;17.57;76.43;100182.34;4423903;32;20123;-85
2022/06/24 03:01:07;;;;;;;3.20;2.50;;;;;;;17.60;76.90;100185.75;4423744;32;20101;-85
2022/06/24 03:03:35;;;;;;;6.37;2.40;;;;;;;17.65;75.82;100193.53;4423688;32;20096;-85
2022/06/24 03:06:04;;;;;;;3.65;2.08;;;;;;;17.69;77.15;100184.47;4423643;32;20116;-85
2022/06/24 03:08:32;;;;;;;7.37;2.20;;;;;;;17.66;76.39;100192.59;4423614;32;20085;-85
2022/06/24 03:10:59;;;;;;;6.50;2.05;;;;;;;17.71;75.88;100190.59;4423560;32;20093;-85
2022/06/24 03:13:28;;;;;;;1.90;1.80;;;;;;;17.74;77.08;100189.56;4423494;32;20433;-84
2022/06/24 03:15:56;;;;;;;3.03;1.98;;;;;;;17.75;77.09;100194.00;4423860;32;20536;-85
2022/06/24 03:18:24;;;;;;;2.60;1.75;;;;;;;17.76;77.08;100198.41;4423606;32;20120;-85
2022/06/24 03:20:52;;;;;;;8.68;2.00;;;;;;;17.81;76.19;100201.72;4423441;32;20135;-85
2022/06/24 03:23:19;;;;;;;5.60;2.20;;;;;;;17.86;76.25;100194.41;4423543;32;20188;-85
2022/06/24 03:25:46;;;;;;;3.75;2.20;;;;;;;17.93;76.18;100198.53;4423464;32;20501;-85
2022/06/24 03:28:14;;;;;;;3.62;2.22;;;;;;;18.04;75.54;100201.56;4423456;32;20090;-85
2022/06/24 03:30:42;;;;;;;2.20;2.00;;;;;;;18.10;76.11;100198.62;4423556;32;20093;-85
2022/06/24 03:33:09;;;;;;;1.77;1.62;;;;;;;18.15;75.97;100191.25;4409279;32;20097;-85
2022/06/24 03:35:37;;;;;;;3.22;2.25;;;;;;;18.21;75.56;100198.12;4423499;32;20112;-85
2022/06/24 03:38:04;;;;;;;6.25;2.00;;;;;;;18.28;75.75;100194.25;4409093;32;20507;-85
2022/06/24 03:40:31;;;;;;;6.18;2.20;;;;;;;18.34;75.30;100201.09;4423394;32;20162;-85
2022/06/24 03:42:59;;;;;;;9.63;2.47;;;;;;;18.44;74.58;100199.69;4396702;32;20136;-85
2022/06/24 03:45:26;;;;;;;2.08;1.90;;;;;;;18.52;74.17;100196.69;4419920;32;20367;-85
2022/06/24 03:47:53;;;;;;;5.03;2.37;;;;;;;18.61;73.87;100196.25;4408717;32;20094;-85
2022/06/24 03:50:21;;;;;;;5.90;2.40;;;;;;;18.69;73.58;100198.53;4408415;32;20393;-76
2022/06/24 03:52:48;;;;;;;4.95;2.25;;;;;;;18.80;72.49;100201.59;4408158;32;20131;-76
2022/06/24 03:55:15;;;;;;;8.63;2.00;;;;;;;18.91;72.50;100203.75;4408733;32;20143;-76
2022/06/24 03:57:42;;;;;;;10.32;2.28;;;;;;;18.98;73.33;100203.37;4407278;32;20212;-75
2022/06/24 04:00:10;;;;;;;3.12;2.03;;;;;;;19.08;72.40;100204.62;4407741;32;20102;-76
2022/06/24 04:02:37;;;;;;;6.62;2.40;;;;;;;19.13;73.68;100201.72;4406807;32;20105;-76
2022/06/24 04:05:14;;;;;;;4.65;2.28;;;;;;;19.18;73.45;100206.84;4400947;32;20098;-76
2022/06/24 04:07:41;;;;;;;6.87;1.80;;;;;;;19.31;73.32;100216.81;4407518;32;20493;-76
2022/06/24 04:10:08;;;;;;;5.57;2.17;;;;;;;19.41;72.37;100214.56;4407560;32;20098;-76
2022/06/24 04:12:36;;;;;;;12.37;2.08;;;;;;;19.51;71.74;100218.50;4407757;32;20109;-75
2022/06/24 04:15:17;;;;;;;5.28;1.90;;;;;;;19.62;73.68;100220.59;4407487;32;20600;-75
2022/06/24 04:17:47;;;;;;;3.10;1.73;;;;;;;19.70;73.14;100214.88;4407630;32;20102;-75
2022/06/24 04:20:17;;;;;;;3.50;1.70;;;;;;;19.79;72.84;100223.31;4407720;32;20128;-75
2022/06/24 04:22:46;;;;;;;4.07;2.08;;;;;;;19.91;73.40;100231.62;4407862;32;20093;-75
2022/06/24 04:25:13;;;;;;;2.28;1.80;;;;;;;19.99;74.58;100224.03;4393445;32;20119;-76
2022/06/24 04:27:41;;;;;;;11.95;2.12;;;;;;;20.11;72.79;100210.03;4403553;32;20095;-75
2022/06/24 04:30:10;;;;;;;4.53;2.10;;;;;;;20.34;70.50;100213.25;4396993;32;20170;-74
2022/06/24 04:32:38;;;;;;;4.68;1.87;;;;;;;20.61;68.76;100222.47;4401326;32;20113;-75
2022/06/24 04:35:05;;;;;;;4.78;2.17;;;;;;;20.74;67.42;100217.25;4404975;32;20086;-75
2022/06/24 04:37:37;;;;;;;5.53;2.50;;;;;;;20.87;67.33;100226.31;4396141;32;20086;-74
2022/06/24 04:40:10;;;;;;;6.40;2.00;;;;;;;21.09;66.25;100227.75;4393908;32;20086;-74
2022/06/24 04:42:37;;;;;;;2.55;2.08;;;;;;;21.19;66.24;100226.28;4398219;32;20143;-74
2022/06/24 04:45:06;;;;;;;3.92;2.00;;;;;;;21.32;65.39;100224.63;4407387;32;20136;-75
2022/06/24 04:47:33;;;;;;;6.20;2.15;;;;;;;21.42;64.24;100225.84;4400536;32;20148;-75
2022/06/24 04:50:00;;;;;;;5.10;2.05;;;;;;;21.48;63.37;100224.59;4397013;32;20431;-75
2022/06/24 04:52:28;;;;;;;2.42;2.22;;;;;;;21.63;61.80;100228.19;4392046;32;20140;-75
2022/06/24 04:54:56;;;;;;;4.55;2.25;;;;;;;21.71;60.91;100240.16;4392548;32;20136;-75
2022/06/24 04:57:24;;;;;;;2.25;1.80;;;;;;;21.77;61.34;100236.28;4405439;32;20167;-75
2022/06/24 04:59:51;;;;;;;7.20;2.20;;;;;;;21.92;60.75;100232.63;4392511;32;20148;-75
2022/06/24 05:02:18;;;;;;;3.30;2.17;;;;;;;21.96;59.70;100236.84;4402636;32;20109;-77
2022/06/24 05:04:46;;;;;;;3.17;1.98;;;;;;;22.08;58.43;100234.38;4396555;32;20154;-76
2022/06/24 05:07:14;;;;;;;6.93;2.30;;;;;;;22.21;56.90;100235.38;4405662;32;20102;-77
2022/06/24 05:09:41;;;;;;;4.72;2.12;;;;;;;22.29;56.50;100225.00;4397336;32;20122;-77
2022/06/24 05:12:09;;;;;;;5.62;2.40;;;;;;;22.32;56.88;100224.81;4400948;32;20106;-76
2022/06/24 05:14:36;;;;;;;3.47;2.08;;;;;;;22.36;57.12;100228.16;4383345;32;20486;-77
2022/06/24 05:17:07;;;;;;;4.70;2.50;;;;;;;22.48;56.92;100227.41;4398101;32;20434;-77
2022/06/24 05:19:34;;;;;;;7.05;2.58;;;;;;;22.55;57.51;100230.56;4398827;32;20102;-77
2022/06/24 05:22:01;;;;;;;6.10;2.20;;;;;;;22.61;56.26;100227.47;4406027;32;20108;-77
2022/06/24 05:24:29;;;;;;;5.93;2.10;;;;;;;22.72;57.13;100229.44;4406647;32;20116;-77
2022/06/24 05:26:56;;;;;;;11.38;2.30;;;;;;;22.73;57.78;100233.87;4406601;32;20102;-77
2022/06/24 05:29:23;;;;;;;3.72;1.77;;;;;;;22.79;57.10;100238.84;4406586;32;20105;-77
2022/06/24 05:31:50;;;;;;;4.60;1.90;;;;;;;22.84;56.26;100237.59;4406922;32;20481;-77
2022/06/24 05:34:18;;;;;;;6.90;2.20;;;;;;;22.87;56.14;100233.84;4405102;32;20414;-77
2022/06/24 05:36:45;;;;;;;3.97;2.17;;;;;;;22.86;54.67;100234.78;4397617;32;20094;-77
2022/06/24 05:39:13;;;;;;;3.00;1.87;;;;;;;22.96;55.88;100240.47;4393356;32;20164;-77
2022/06/24 05:41:41;;;;;;;4.72;2.20;;;;;;;23.03;54.79;100228.34;4406778;32;20148;-77
2022/06/24 05:44:09;;;;;;;7.40;2.50;;;;;;;23.10;54.17;100245.78;4407385;32;20078;-77
2022/06/24 05:46:38;;;;;;;13.52;2.30;;;;;;;23.20;55.05;100249.59;4406911;32;20805;-79
2022/06/24 05:49:06;;;;;;;8.38;2.08;;;;;;;23.27;55.25;100256.28;4398467;32;20082;-77
2022/06/24 05:51:36;;;;;;;10.55;2.10;;;;;;;23.29;54.24;100246.31;4405126;32;20105;-76
2022/06/24 05:56:51;;;;;;;9.93;2.00;;;;;;;23.29;55.51;100243.63;4405582;32;20085;-77
2022/06/24 05:59:18;;;;;;;5.55;2.25;;;;;;;23.34;57.11;100246.84;4408610;32;20131;-77
2022/06/24 06:01:45;;;;;;;2.75;2.00;;;;;;;23.40;56.90;100250.09;4400948;32;20173;-77
2022/06/24 06:04:13;;;;;;;2.50;1.85;;;;;;;23.47;55.14;100248.72;4398908;32;20906;-76
2022/06/24 06:06:40;;;;;;;6.20;2.12;;;;;;;23.48;55.20;100247.75;4396146;32;20106;-77
2022/06/24 06:09:08;;;;;;;4.75;2.10;;;;;;;23.61;53.94;100245.94;4392457;32;20117;-77
2022/06/24 06:11:35;;;;;;;3.87;2.22;;;;;;;23.69;54.20;100243.63;4378521;32;20479;-77
2022/06/24 06:14:02;;;;;;;7.30;1.95;;;;;;;23.79;55.07;100244.72;4378738;32;20466;-77
2022/06/24 06:16:29;;;;;;;10.27;2.15;;;;;;;23.95;55.39;100249.03;4393637;32;20445;-77
2022/06/24 06:18:57;;;;;;;7.50;1.92;;;;;;;24.01;53.31;100240.53;4394070;32;20082;-77
2022/06/24 06:21:25;;;;;;;4.70;2.10;;;;;;;24.12;53.84;100250.53;4393561;32;20117;-78
2022/06/24 06:23:52;;;;;;;2.85;1.67;;;;;;;24.28;54.01;100246.66;4392936;32;20118;-77
2022/06/24 06:26:19;;;;;;;5.07;2.03;;;;;;;24.32;53.74;100245.47;4379523;32;20095;-77
2022/06/24 06:28:46;;;;;;;4.43;1.67;;;;;;;24.32;52.80;100233.84;4393766;32;20089;-77
2022/06/24 06:31:14;;;;;;;5.25;2.10;;;;;;;24.40;53.01;100236.00;4393152;32;20132;-77
2022/06/24 06:33:41;;;;;;;6.72;1.75;;;;;;;24.47;49.88;100239.97;4393399;32;20078;-77
2022/06/24 06:36:11;;;;;;;11.07;2.30;;;;;;;24.50;50.12;100237.06;4397921;32;20672;-77
2022/06/24 06:38:39;;;;;;;7.50;2.08;;;;;;;24.55;50.40;100238.44;4408608;32;20499;-77
2022/06/24 06:41:14;;;;;;;5.30;2.00;;;;;;;24.74;49.11;100232.59;4397450;32;20098;-77
2022/06/24 06:43:41;;;;;;;4.03;2.03;;;;;;;24.88;49.02;100234.28;4393789;32;20439;-77
2022/06/24 06:46:24;;;;;;;5.18;1.87;;;;;;;24.92;49.63;100226.81;4406545;32;20754;-77
2022/06/24 06:48:52;;;;;;;6.35;1.83;;;;;;;25.01;49.11;100218.03;4379634;32;20486;-77
2022/06/24 06:51:19;;;;;;;6.82;2.12;;;;;;;25.13;49.10;100219.84;4393741;32;20437;-77
2022/06/24 06:53:46;;;;;;;6.87;2.60;;;;;;;25.14;48.76;100224.25;4392850;32;20094;-77
2022/06/24 06:56:14;;;;;;;9.93;1.65;;;;;;;25.25;48.90;100218.06;4400880;32;20110;-77
2022/06/24 06:58:41;;;;;;;7.70;2.17;;;;;;;25.44;49.25;100225.59;4408823;32;20097;-77
2022/06/24 07:01:08;;;;;;;10.60;2.10;;;;;;;25.58;48.28;100227.25;4400880;32;20102;-77
2022/06/24 07:03:36;;;;;;;7.93;2.20;;;;;;;25.65;48.42;100221.25;4393908;32;20094;-77
2022/06/24 07:06:03;;;;;;;8.55;2.22;;;;;;;25.68;47.29;100225.56;4408336;32;20916;-77
2022/06/24 07:08:31;;;;;;;3.78;2.00;;;;;;;25.85;47.38;100214.34;4408546;32;20426;-77
2022/06/24 07:10:58;;;;;;;2.00;1.90;;;;;;;25.99;47.15;100218.66;4408410;32;20163;-77
2022/06/24 07:13:27;;;;;;;3.12;1.80;;;;;;;26.18;46.91;100224.34;4407968;32;20078;-77
2022/06/24 07:15:54;;;;;;;2.40;2.20;;;;;;;26.41;46.27;100225.19;4408080;32;20431;-77
2022/06/24 07:18:23;;;;;;;5.97;2.10;;;;;;;26.50;44.97;100222.75;4406123;32;20165;-77
2022/06/24 07:20:50;;;;;;;6.18;1.70;;;;;;;26.64;44.67;100217.06;4393653;32;20113;-77
2022/06/24 07:23:17;;;;;;;4.15;1.80;;;;;;;26.77;44.67;100216.94;4401931;32;20094;-77
2022/06/24 07:25:44;;;;;;;5.93;1.98;;;;;;;26.92;43.18;100213.81;4409121;32;20163;-77
2022/06/24 07:28:12;;;;;;;4.18;1.80;;;;;;;27.09;42.60;100220.53;4407786;32;20127;-77
2022/06/24 07:30:39;;;;;;;6.40;2.15;;;;;;;27.17;42.44;100218.09;4402543;32;20097;-78
2022/06/24 07:33:06;;;;;;;5.50;1.70;;;;;;;27.21;42.36;100217.81;4396522;32;20082;-77
2022/06/24 07:35:33;;;;;;;10.27;2.12;;;;;;;27.36;41.82;100214.69;4396952;32;20160;-77
2022/06/24 07:38:18;;;;;;;3.55;1.80;;;;;;;27.53;42.30;100217.81;4392702;32;20105;-81
2022/06/24 07:40:46;;;;;;;4.50;2.12;;;;;;;27.70;41.48;100217.19;4392918;32;20106;-81
2022/06/24 07:43:13;;;;;;;14.95;2.00;;;;;;;27.68;40.90;100205.66;4395086;32;20078;-78
2022/06/24 07:45:40;;;;;;;7.72;1.73;;;;;;;27.73;41.78;100211.53;4393895;32;20189;-74
2022/06/24 07:48:08;;;;;;;2.83;1.90;;;;;;;27.84;40.57;100207.91;4399427;32;20184;-76
2022/06/24 07:50:35;;;;;;;7.68;2.08;;;;;;;27.99;40.33;100203.88;4403609;32;20149;-75
2022/06/24 07:53:02;;;;;;;7.72;2.67;;;;;;;27.98;40.55;100204.00;4393130;32;20099;-76
2022/06/24 07:58:16;;;;;;;3.08;1.73;;;;;;;28.14;40.10;100203.53;4393267;32;20152;-76
2022/06/24 08:00:43;;;;;;;6.60;1.80;;;;;;;28.42;39.53;100200.09;4393167;32;20779;-77
2022/06/24 08:03:11;;;;;;;7.00;2.20;;;;;;;28.45;38.57;100197.13;4393038;32;20228;-76
2022/06/24 08:05:39;;;;;;;6.82;2.05;;;;;;;28.49;38.46;100195.00;4393040;32;20102;-76
2022/06/24 08:08:06;;;;;;;10.43;2.05;;;;;;;28.47;38.77;100189.69;4393292;32;20105;-76
2022/06/24 08:10:34;;;;;;;8.18;1.58;;;;;;;28.75;39.69;100192.63;4397641;32;20785;-77
2022/06/24 08:13:01;;;;;;;6.70;1.90;;;;;;;28.92;37.99;100185.66;4393777;32;20094;-77
2022/06/24 08:15:28;;;;;;;10.38;1.95;;;;;;;28.87;37.87;100196.94;4405664;32;20090;-76
2022/06/24 08:17:56;;;;;;;5.20;1.70;;;;;;;28.69;37.73;100191.31;4407348;32;20485;-76
2022/06/24 08:20:23;;;;;;;3.62;1.85;;;;;;;28.82;36.96;100191.06;4407579;32;20102;-76
2022/06/24 08:22:50;;;;;;;2.12;1.65;;;;;;;28.96;36.63;100192.50;4406258;32;20085;-77
2022/06/24 08:25:18;;;;;;;3.55;1.70;;;;;;;29.00;36.99;100191.25;4407454;32;20591;-77
2022/06/24 08:27:50;;;;;;;3.30;2.12;;;;;;;29.07;36.73;100186.97;4407581;32;21057;-76
2022/06/24 08:30:18;;;;;;;5.10;1.70;;;;;;;29.19;37.14;100187.69;4407525;32;20775;-76
2022/06/24 08:32:46;;;;;;;4.87;1.73;;;;;;;29.01;37.36;100182.13;4401739;32;20086;-76
2022/06/24 08:35:13;;;;;;;5.62;1.60;;;;;;;29.10;36.90;100188.56;4399764;32;20102;-75
2022/06/24 08:37:54;;;;;;;9.50;2.03;;;;;;;29.41;36.81;100187.41;4392737;32;20090;-75
2022/06/24 08:40:22;;;;;;;12.32;1.87;;;;;;;29.71;36.07;100180.09;4394123;32;20101;-75
2022/06/24 08:42:52;;;;;;;7.47;1.80;;;;;;;29.85;35.07;100182.34;4401827;32;20489;-75
2022/06/24 08:45:21;;;;;;;4.03;1.65;;;;;;;29.75;35.05;100187.81;4407409;32;20094;-75
2022/06/24 08:47:48;;;;;;;12.05;1.58;;;;;;;29.70;35.52;100181.12;4407153;32;20106;-75
2022/06/24 08:50:17;;;;;;;6.72;1.58;;;;;;;29.76;35.03;100175.97;4402482;32;20129;-75
2022/06/24 08:52:54;;;;;;;2.25;1.60;;;;;;;29.92;34.96;100178.03;4406448;32;20136;-76
2022/06/24 08:55:24;;;;;;;2.70;1.37;;;;;;;30.12;33.46;100177.97;4406519;32;20366;-76
2022/06/24 08:57:52;;;;;;;3.47;1.42;;;;;;;30.30;33.55;100173.50;4398633;32;20091;-74
2022/06/24 09:00:20;;;;;;;3.60;1.42;;;;;;;30.31;32.94;100177.91;4402481;32;20637;-74
2022/06/24 09:02:48;;;;;;;5.57;1.70;;;;;;;30.54;33.73;100178.38;4392405;32;20189;-74
2022/06/24 09:05:16;;;;;;;5.28;1.87;;;;;;;30.66;33.11;100182.59;4392021;32;20122;-74
2022/06/24 09:07:44;;;;;;;5.50;1.48;;;;;;;30.30;33.15;100175.38;4391926;32;20129;-74
2022/06/24 09:10:13;;;;;;;4.40;1.60;;;;;;;30.57;33.51;100172.66;4392642;32;20175;-74
2022/06/24 09:12:44;;;;;;;4.32;1.20;;;;;;;30.46;32.46;100175.53;4407874;32;20086;-74
2022/06/24 09:15:13;;;;;;;6.12;1.33;;;;;;;30.46;32.82;100173.72;4393143;32;20094;-74
2022/06/24 09:17:41;;;;;;;4.40;1.55;;;;;;;30.73;32.01;100166.50;4405532;32;20262;-74
2022/06/24 09:20:22;;;;;;;1.87;1.45;;;;;;;30.97;31.76;100174.12;4405934;32;20113;-74
2022/06/24 09:23:09;;;;;;;3.72;1.50;;;;;;;31.10;32.57;100176.47;4406887;32;20073;-74
2022/06/24 09:25:50;;;;;;;8.50;1.65;;;;;;;31.10;32.06;100176.47;4409230;32;20132;-74
2022/06/24 09:28:27;;;;;;;4.10;1.40;;;;;;;30.91;32.24;100170.13;4409586;32;20099;-74
2022/06/24 09:31:03;;;;;;;2.72;1.60;;;;;;;31.36;31.75;100169.22;4409671;32;20117;-74
2022/06/24 09:33:42;;;;;;;5.70;1.60;;;;;;;31.64;31.34;100172.66;4409852;32;20093;-74
2022/06/24 09:36:12;;;;;;;5.28;1.62;;;;;;;31.83;31.00;100171.59;4409725;32;20137;-74
2022/06/24 09:39:02;;;;;;;3.42;1.75;;;;;;;31.93;31.07;100168.78;4409250;32;20097;-73
2022/06/24 09:41:30;;;;;;;6.20;1.83;;;;;;;32.15;30.50;100172.81;4409150;32;20953;-73
2022/06/24 09:43:59;;;;;;;6.30;2.00;;;;;;;32.14;30.93;100165.69;4408950;32;20073;-74
2022/06/24 09:46:26;;;;;;;4.03;1.70;;;;;;;32.43;31.54;100159.84;4409433;32;20106;-74
2022/06/24 09:49:06;;;;;;;5.72;2.17;;;;;;;32.44;30.54;100168.88;4394270;32;20133;-73
2022/06/24 09:51:34;;;;;;;8.30;1.45;;;;;;;32.50;30.73;100168.22;4409401;32;20562;-73
2022/06/24 09:54:04;;;;;;;4.78;1.60;;;;;;;32.59;30.60;100164.53;4409326;32;20081;-74
2022/06/24 09:56:32;;;;;;;3.47;1.30;;;;;;;32.76;29.54;100165.44;4400086;32;20124;-74
2022/06/24 10:01:48;;;;;;;2.85;1.42;;;;;;;32.92;30.62;100154.53;4396412;32;20159;-75
2022/06/24 10:04:20;;;;;;;4.35;1.85;;;;;;;32.45;29.66;100163.28;4393040;32;20152;-75
2022/06/24 10:06:49;;;;;;;3.33;1.73;;;;;;;32.12;30.48;100154.06;4399742;32;20098;-75
2022/06/24 10:09:24;;;;;;;7.03;1.60;;;;;;;32.50;30.88;100150.00;4398317;32;20098;-75
2022/06/24 10:11:53;;;;;;;4.43;2.22;;;;;;;32.95;30.42;100139.72;4401152;32;20154;-75
2022/06/24 10:14:21;;;;;;;9.85;2.00;;;;;;;33.18;30.20;100139.91;4396677;32;20167;-75
2022/06/24 10:16:50;;;;;;;3.03;1.77;;;;;;;33.41;29.67;100140.06;4386412;32;20135;-75
2022/06/24 10:19:19;;;;;;;5.25;1.60;;;;;;;33.37;28.84;100136.00;4394074;32;20132;-76
2022/06/24 10:21:50;;;;;;;4.70;1.20;;;;;;;33.09;29.22;100136.31;4393692;32;20094;-76
2022/06/24 10:24:18;;;;;;;7.12;1.40;;;;;;;33.06;30.01;100134.78;4395254;32;20109;-76
2022/06/24 10:26:55;;;;;;;4.95;1.62;;;;;;;32.44;29.36;100139.78;4381592;32;20803;-76
2022/06/24 10:29:28;;;;;;;3.65;1.48;;;;;;;32.48;29.91;100132.09;4386058;32;20164;-75
2022/06/24 10:32:00;;;;;;;2.90;1.42;;;;;;;32.89;29.62;100118.53;4402378;32;20104;-75
2022/06/24 10:34:32;;;;;;;5.47;1.50;;;;;;;32.87;29.22;100118.72;4400920;32;20116;-75
2022/06/24 10:37:20;;;;;;;2.97;1.48;;;;;;;33.25;28.23;100114.50;4393221;32;20082;-72
2022/06/24 10:39:49;;;;;;;4.40;1.77;;;;;;;33.28;28.72;100107.81;4404451;32;20846;-75
2022/06/24 10:42:26;;;;;;;1.67;1.25;;;;;;;33.95;29.20;100110.25;4395472;32;20136;-72
2022/06/24 10:44:56;;;;;;;6.53;1.30;;;;;;;34.17;27.98;100109.53;4380425;32;20081;-72
2022/06/24 10:47:43;;;;;;;2.05;1.60;;;;;;;34.39;27.14;100110.63;4408735;32;20472;-73
2022/06/24 10:50:13;;;;;;;3.65;1.77;;;;;;;33.84;27.29;100110.66;4407416;32;20098;-74
2022/06/24 10:52:48;;;;;;;1.87;1.08;;;;;;;33.84;29.21;100096.97;4403500;32;20537;-74
2022/06/24 10:55:15;;;;;;;1.63;1.30;;;;;;;34.03;27.58;100085.69;4403419;32;20081;-73
2022/06/24 10:57:44;;;;;;;6.62;1.45;;;;;;;34.00;28.12;100092.34;4406220;32;20783;-74
2022/06/24 11:00:16;;;;;;;3.50;1.33;;;;;;;34.66;27.67;100087.38;4392164;32;20117;-74
2022/06/24 11:02:45;;;;;;;3.05;1.37;;;;;;;34.99;27.07;100084.41;4393712;32;20189;-73
2022/06/24 11:05:26;;;;;;;3.70;1.30;;;;;;;34.76;26.87;100080.81;4402883;32;20136;-74
2022/06/24 11:07:54;;;;;;;2.58;1.35;;;;;;;34.89;26.82;100081.06;4405375;32;20757;-74
2022/06/24 11:10:24;;;;;;;3.87;1.40;;;;;;;34.96;26.27;100087.50;4406509;32;20101;-74
2022/06/24 11:12:57;;;;;;;2.33;1.48;;;;;;;34.34;27.57;100084.81;4408994;32;20770;-75
2022/06/24 11:15:38;;;;;;;2.50;1.55;;;;;;;34.75;26.58;100079.97;4416019;32;20155;-74
2022/06/24 11:18:07;;;;;;;2.90;1.55;;;;;;;35.26;26.45;100082.13;4406874;32;20198;-75
2022/06/24 11:20:54;;;;;;;3.92;1.40;;;;;;;34.99;26.29;100073.47;4411516;32;20731;-74
2022/06/24 11:23:25;;;;;;;2.42;1.45;;;;;;;35.04;26.94;100068.31;4424194;32;20157;-73
2022/06/24 11:25:57;;;;;;;3.15;1.20;;;;;;;35.55;26.29;100071.28;4423559;32;20702;-74
2022/06/24 11:28:25;;;;;;;3.25;1.45;;;;;;;35.76;25.82;100065.03;4423524;32;20469;-75
2022/06/24 11:30:55;;;;;;;4.25;1.45;;;;;;;36.30;24.72;100058.34;4423426;32;20101;-75
2022/06/24 11:33:23;;;;;;;6.75;1.48;;;;;;;36.87;24.53;100051.16;4423980;32;20135;-75
2022/06/24 11:35:50;;;;;;;2.25;1.25;;;;;;;37.38;23.39;100051.78;4423772;32;20090;-75
2022/06/24 11:38:22;;;;;;;5.12;1.50;;;;;;;38.37;22.93;100059.75;4423997;32;20081;-74
2022/06/24 11:40:50;;;;;;;4.25;1.33;;;;;;;40.39;21.72;100055.56;4423723;32;20190;-74
2022/06/24 11:43:17;;;;;;;5.68;1.35;;;;;;;41.99;20.05;100044.84;4423588;32;20174;-74
2022/06/24 11:45:49;;;;;;;3.35;1.30;;;;;;;42.20;20.20;100039.91;4423877;32;20115;-73